Time;durP1;ratioP1;P1;durP2;ratioP2;P2;SDS_P1;SDS_P2;PMS_P1;PMS_P2;Temp;Humidity;BMP_temperature;BMP_pressure;BME280_temperature;BME280_humidity;BME280_pressure;Samples;Min_cycle;Max_cycle;Signal;HPM_P1;HPM_P2
2023/10/31 00:00:50;;;;;;;35.90;19.80;;;12.70;99.90;;;;;;5037810;28;20049;-71
2023/10/31 00:03:17;;;;;;;30.00;17.90;;;12.50;99.90;;;;;;5038139;28;20528;-72
2023/10/31 00:05:45;;;;;;;33.97;19.85;;;12.70;99.90;;;;;;5041298;28;20424;-74
2023/10/31 00:08:12;;;;;;;33.15;19.38;;;12.70;99.90;;;;;;5039209;28;20033;-71
2023/10/31 00:10:39;;;;;;;38.80;21.20;;;12.70;99.90;;;;;;5049407;28;20411;-75
2023/10/31 00:13:06;;;;;;;38.38;20.02;;;12.60;99.90;;;;;;5036924;28;20046;-75
2023/10/31 00:15:33;;;;;;;34.78;20.30;;;12.50;99.90;;;;;;5035630;28;20056;-74
2023/10/31 00:18:01;;;;;;;38.92;20.92;;;12.40;99.90;;;;;;5037230;28;20639;-73
2023/10/31 00:20:29;;;;;;;31.85;19.65;;;12.40;99.90;;;;;;5039720;28;20116;-73
2023/10/31 00:22:56;;;;;;;34.70;20.02;;;12.40;99.90;;;;;;5032800;28;20046;-73
2023/10/31 00:25:23;;;;;;;35.40;20.85;;;12.40;99.90;;;;;;5039644;28;20030;-73
2023/10/31 00:27:50;;;;;;;37.95;22.33;;;12.40;99.90;;;;;;5032495;28;20056;-73
2023/10/31 00:30:17;;;;;;;42.25;26.20;;;12.50;99.90;;;;;;5036780;28;20447;-73
2023/10/31 00:32:45;;;;;;;30.60;17.23;;;12.60;99.90;;;;;;5037296;28;20063;-72
2023/10/31 00:35:12;;;;;;;30.83;18.30;;;12.40;99.90;;;;;;5038447;28;20121;-73
2023/10/31 00:37:40;;;;;;;31.27;20.10;;;12.50;99.90;;;;;;5033756;28;20041;-75
2023/10/31 00:40:10;;;;;;;32.38;18.65;;;12.40;99.90;;;;;;5034200;28;20481;-73
2023/10/31 00:42:40;;;;;;;33.22;18.42;;;12.20;99.90;;;;;;5037428;28;20447;-74
2023/10/31 00:45:08;;;;;;;33.67;18.35;;;12.10;99.90;;;;;;5033584;28;20069;-74
2023/10/31 00:47:36;;;;;;;28.27;18.40;;;12.20;99.90;;;;;;5038774;28;20033;-71
2023/10/31 00:50:04;;;;;;;28.65;16.30;;;12.30;99.90;;;;;;5040248;28;20037;-72
2023/10/31 00:52:31;;;;;;;24.92;15.98;;;12.30;99.90;;;;;;5037706;28;20885;-73
2023/10/31 00:54:58;;;;;;;27.90;16.38;;;12.50;99.90;;;;;;5035555;28;20468;-73
2023/10/31 00:57:26;;;;;;;31.27;18.02;;;12.40;99.90;;;;;;5031001;28;20038;-74
2023/10/31 00:59:53;;;;;;;28.55;18.00;;;12.50;99.90;;;;;;5039843;28;20116;-73
2023/10/31 01:02:20;;;;;;;30.92;18.08;;;12.40;99.90;;;;;;5039839;28;20029;-74
2023/10/31 01:04:47;;;;;;;31.30;17.98;;;12.30;99.90;;;;;;5036235;28;20041;-73
2023/10/31 01:07:16;;;;;;;28.92;18.38;;;12.30;99.90;;;;;;5033877;28;20037;-74
2023/10/31 01:09:44;;;;;;;33.50;18.83;;;12.40;99.90;;;;;;5035047;28;20052;-73
2023/10/31 01:12:11;;;;;;;33.97;18.38;;;12.30;99.90;;;;;;5049700;28;20324;-73
2023/10/31 01:14:39;;;;;;;28.48;18.33;;;12.10;99.90;;;;;;5038247;28;20045;-72
2023/10/31 01:17:06;;;;;;;30.92;17.63;;;12.10;99.90;;;;;;5034491;28;20037;-73
2023/10/31 01:19:34;;;;;;;34.67;18.00;;;12.20;99.90;;;;;;5033257;28;20408;-73
2023/10/31 01:22:01;;;;;;;35.58;18.70;;;12.20;99.90;;;;;;5037735;28;20042;-73
2023/10/31 01:24:28;;;;;;;33.63;19.05;;;12.20;99.90;;;;;;5039757;28;20113;-71
2023/10/31 01:26:56;;;;;;;35.80;19.60;;;12.20;99.90;;;;;;5034414;28;20076;-72
2023/10/31 01:29:23;;;;;;;30.45;18.02;;;11.80;99.90;;;;;;5036298;28;20489;-72
2023/10/31 01:31:50;;;;;;;32.42;18.17;;;11.80;99.90;;;;;;5043035;28;20071;-72
2023/10/31 01:34:27;;;;;;;27.73;17.40;;;11.90;99.90;;;;;;5029586;28;20041;-72
2023/10/31 01:36:54;;;;;;;30.77;17.52;;;11.80;99.90;;;;;;5035678;28;20055;-72
2023/10/31 01:39:21;;;;;;;29.95;16.67;;;11.80;99.90;;;;;;5035775;28;20550;-72
2023/10/31 01:41:48;;;;;;;26.73;15.07;;;11.80;99.90;;;;;;5034937;28;20092;-72
2023/10/31 01:44:16;;;;;;;24.55;14.68;;;11.60;99.90;;;;;;5033966;28;20033;-72
2023/10/31 01:46:43;;;;;;;28.73;16.58;;;11.50;99.90;;;;;;5040046;28;20042;-72
2023/10/31 01:49:10;;;;;;;30.48;16.35;;;11.60;99.90;;;;;;5029366;28;20427;-73
2023/10/31 01:51:37;;;;;;;28.13;15.57;;;11.70;99.90;;;;;;5037455;28;20120;-72
2023/10/31 01:54:05;;;;;;;29.00;17.00;;;12.00;99.90;;;;;;5040353;28;20041;-72
2023/10/31 01:56:32;;;;;;;28.73;16.65;;;12.00;99.90;;;;;;5030748;28;20171;-73
2023/10/31 01:58:59;;;;;;;27.92;15.18;;;12.00;99.90;;;;;;5036879;28;20044;-74
2023/10/31 02:01:27;;;;;;;33.88;16.77;;;11.70;99.90;;;;;;5038456;28;20050;-73
2023/10/31 02:03:54;;;;;;;22.70;15.35;;;11.80;99.90;;;;;;5041117;28;20124;-72
2023/10/31 02:06:21;;;;;;;28.55;14.93;;;11.80;99.90;;;;;;5044032;28;20044;-73
2023/10/31 02:08:49;;;;;;;21.92;14.93;;;11.60;99.90;;;;;;5041545;28;20139;-73
2023/10/31 02:11:16;;;;;;;25.25;15.60;;;11.50;99.90;;;;;;5039756;28;20048;-72
2023/10/31 02:13:43;;;;;;;24.73;15.32;;;11.40;99.90;;;;;;5026903;28;20068;-74
2023/10/31 02:16:10;;;;;;;26.08;15.15;;;11.60;99.90;;;;;;5031741;28;20131;-74
2023/10/31 02:18:37;;;;;;;25.27;15.52;;;11.70;99.90;;;;;;5040721;28;20033;-73
2023/10/31 02:21:05;;;;;;;20.15;14.10;;;11.50;99.90;;;;;;5043943;28;20038;-72
2023/10/31 02:23:32;;;;;;;22.40;15.18;;;11.50;99.90;;;;;;5042296;28;20421;-73
2023/10/31 02:25:59;;;;;;;25.02;14.80;;;11.50;99.90;;;;;;5035394;28;20064;-73
2023/10/31 02:28:27;;;;;;;23.08;14.80;;;11.50;99.90;;;;;;5041729;28;20048;-73
2023/10/31 02:30:55;;;;;;;27.05;13.70;;;11.60;99.90;;;;;;5035870;28;20042;-73
2023/10/31 02:33:22;;;;;;;20.73;13.13;;;11.60;99.90;;;;;;5038196;28;20045;-72
2023/10/31 02:35:49;;;;;;;22.83;13.23;;;11.60;99.90;;;;;;5043086;28;20116;-73
2023/10/31 02:38:16;;;;;;;22.27;13.35;;;11.70;99.90;;;;;;5030390;28;20042;-73
2023/10/31 02:40:44;;;;;;;19.13;12.90;;;11.40;99.90;;;;;;5039246;28;20115;-71
2023/10/31 02:43:11;;;;;;;19.50;12.43;;;11.70;99.90;;;;;;5027165;28;20048;-73
2023/10/31 02:45:38;;;;;;;29.13;14.10;;;11.70;99.90;;;;;;5068438;28;20408;-72
2023/10/31 02:48:05;;;;;;;19.95;13.05;;;11.60;99.90;;;;;;5034649;28;20068;-72
2023/10/31 02:50:33;;;;;;;22.30;12.88;;;11.60;99.90;;;;;;5042446;28;20033;-73
2023/10/31 02:53:00;;;;;;;30.95;15.32;;;11.60;99.90;;;;;;5037517;28;20563;-72
2023/10/31 02:55:27;;;;;;;30.67;16.85;;;11.40;99.90;;;;;;5035247;28;20040;-74
2023/10/31 02:57:54;;;;;;;33.50;15.80;;;11.30;99.90;;;;;;5037731;28;20147;-73
2023/10/31 03:00:22;;;;;;;24.20;15.20;;;11.10;99.90;;;;;;5038799;28;20055;-73
2023/10/31 03:02:49;;;;;;;29.33;17.30;;;11.00;99.90;;;;;;5023021;28;20144;-72
2023/10/31 03:05:16;;;;;;;27.10;15.95;;;11.20;99.90;;;;;;5041593;28;20048;-72
2023/10/31 03:07:44;;;;;;;26.42;14.95;;;10.90;99.90;;;;;;5043128;28;20045;-71
2023/10/31 03:10:12;;;;;;;27.33;14.15;;;10.80;99.90;;;;;;5040221;28;20903;-71
2023/10/31 03:12:39;;;;;;;25.55;14.10;;;11.00;99.90;;;;;;5038488;28;20079;-71
2023/10/31 03:15:07;;;;;;;21.65;13.23;;;11.00;99.90;;;;;;5036735;28;20041;-71
2023/10/31 03:17:34;;;;;;;21.30;12.13;;;10.90;99.90;;;;;;5035808;28;20041;-73
2023/10/31 03:20:02;;;;;;;18.48;10.57;;;10.90;99.90;;;;;;5040304;28;20045;-71
2023/10/31 03:22:29;;;;;;;15.68;10.52;;;10.90;99.90;;;;;;5042461;28;20045;-73
2023/10/31 03:24:57;;;;;;;18.50;9.55;;;10.80;99.90;;;;;;5041886;28;20103;-71
2023/10/31 03:27:24;;;;;;;14.35;9.90;;;10.70;99.90;;;;;;5041426;28;20033;-71
2023/10/31 03:29:51;;;;;;;17.48;10.90;;;11.00;99.90;;;;;;5042565;28;20578;-71
2023/10/31 03:32:18;;;;;;;18.85;10.90;;;10.70;99.90;;;;;;5037412;28;20534;-71
2023/10/31 03:34:45;;;;;;;16.05;11.23;;;10.70;99.90;;;;;;5034916;28;20084;-73
2023/10/31 03:37:13;;;;;;;16.70;10.82;;;10.70;99.90;;;;;;5021469;28;20069;-71
2023/10/31 03:39:40;;;;;;;15.40;9.65;;;10.60;99.90;;;;;;5040343;28;20029;-74
2023/10/31 03:42:07;;;;;;;16.98;10.38;;;10.70;99.90;;;;;;5041434;28;20034;-72
2023/10/31 03:44:34;;;;;;;24.10;13.98;;;10.80;99.90;;;;;;5039666;28;20448;-72
2023/10/31 03:47:02;;;;;;;20.92;11.15;;;10.40;99.90;;;;;;5032490;28;20041;-72
2023/10/31 03:49:29;;;;;;;22.45;11.32;;;10.40;99.90;;;;;;5036759;28;20059;-71
2023/10/31 03:51:56;;;;;;;17.13;9.65;;;10.30;99.90;;;;;;5039477;28;20059;-70
2023/10/31 03:54:23;;;;;;;23.73;10.95;;;10.10;99.90;;;;;;5040156;28;20059;-71
2023/10/31 03:56:50;;;;;;;18.50;10.07;;;10.30;99.90;;;;;;5035397;28;20052;-72
2023/10/31 03:59:21;;;;;;;18.63;10.35;;;10.40;99.90;;;;;;5038407;28;20032;-72
2023/10/31 04:01:48;;;;;;;23.15;10.10;;;10.40;99.90;;;;;;5038675;28;20083;-73
2023/10/31 04:04:15;;;;;;;19.10;10.05;;;10.50;99.90;;;;;;5047421;28;20045;-72
2023/10/31 04:06:43;;;;;;;16.13;9.10;;;10.50;99.90;;;;;;5040342;28;20122;-72
2023/10/31 04:09:10;;;;;;;17.00;8.95;;;10.50;99.90;;;;;;5036931;28;20044;-73
2023/10/31 04:11:38;;;;;;;14.25;9.13;;;10.50;99.90;;;;;;5034981;28;20042;-70
2023/10/31 04:14:05;;;;;;;15.70;9.63;;;10.30;99.90;;;;;;5039826;28;20038;-71
2023/10/31 04:16:38;;;;;;;13.75;9.13;;;9.90;99.90;;;;;;5038232;28;20478;-70
2023/10/31 04:19:06;;;;;;;16.75;9.30;;;9.90;99.90;;;;;;5037447;28;20045;-72
2023/10/31 04:21:33;;;;;;;12.98;8.57;;;10.10;99.90;;;;;;5039330;28;20132;-70
2023/10/31 04:24:01;;;;;;;13.00;8.90;;;10.30;99.90;;;;;;5036252;28;20045;-70
2023/10/31 04:26:28;;;;;;;15.50;9.25;;;10.20;99.90;;;;;;5035902;28;20071;-71
2023/10/31 04:28:56;;;;;;;11.82;8.60;;;10.30;99.90;;;;;;5036637;28;20447;-71
2023/10/31 04:31:23;;;;;;;15.13;8.40;;;10.40;99.90;;;;;;5036060;28;20055;-71
2023/10/31 04:34:04;;;;;;;12.93;8.50;;;10.30;99.90;;;;;;5037250;28;20042;-72
2023/10/31 04:36:31;;;;;;;11.48;7.85;;;10.40;99.90;;;;;;5040445;28;20034;-72
2023/10/31 04:38:59;;;;;;;11.82;8.18;;;10.30;99.90;;;;;;5033327;28;20041;-72
2023/10/31 04:41:26;;;;;;;13.05;8.23;;;10.50;99.90;;;;;;5038959;28;20060;-73
2023/10/31 04:43:53;;;;;;;13.23;7.80;;;10.60;99.90;;;;;;5014241;28;20124;-73
2023/10/31 04:46:20;;;;;;;12.93;8.20;;;10.40;99.90;;;;;;5016252;28;20038;-71
2023/10/31 04:48:48;;;;;;;11.38;7.90;;;10.40;99.90;;;;;;5041047;28;20071;-72
2023/10/31 04:51:15;;;;;;;13.63;8.85;;;10.00;99.90;;;;;;5036713;28;20361;-71
2023/10/31 04:53:42;;;;;;;11.18;8.15;;;10.30;99.90;;;;;;5037995;28;20114;-74
2023/10/31 04:56:14;;;;;;;11.70;8.07;;;10.30;99.90;;;;;;5036963;28;20404;-73
2023/10/31 04:58:42;;;;;;;9.63;7.85;;;10.30;99.90;;;;;;5035357;28;20053;-73
2023/10/31 05:01:13;;;;;;;13.57;8.02;;;10.20;99.90;;;;;;5040580;28;20496;-71
2023/10/31 05:03:41;;;;;;;12.98;7.93;;;10.40;99.90;;;;;;5041710;28;20067;-73
2023/10/31 05:06:08;;;;;;;11.85;8.25;;;10.30;99.90;;;;;;5036130;28;20433;-72
2023/10/31 05:08:35;;;;;;;11.32;7.70;;;10.40;99.90;;;;;;5038346;28;20048;-72
2023/10/31 05:11:02;;;;;;;12.13;8.07;;;10.30;99.90;;;;;;5038286;28;20110;-72
2023/10/31 05:13:30;;;;;;;12.77;8.60;;;10.40;99.90;;;;;;5037992;28;20439;-73
2023/10/31 05:15:58;;;;;;;12.52;7.72;;;10.30;99.90;;;;;;5041168;28;20115;-72
2023/10/31 05:18:25;;;;;;;12.50;7.25;;;10.30;99.90;;;;;;5039313;28;20096;-72
2023/10/31 05:20:53;;;;;;;10.68;7.68;;;10.30;99.90;;;;;;5022032;28;20060;-71
2023/10/31 05:23:20;;;;;;;11.45;7.32;;;10.40;99.90;;;;;;5039796;28;20052;-73
2023/10/31 05:25:47;;;;;;;13.32;7.80;;;10.40;99.90;;;;;;5030624;28;20041;-72
2023/10/31 05:28:14;;;;;;;11.82;7.35;;;10.60;99.90;;;;;;5032665;28;20105;-72
2023/10/31 05:30:42;;;;;;;11.80;7.43;;;10.70;99.90;;;;;;5037465;28;20041;-72
2023/10/31 05:33:09;;;;;;;12.48;7.60;;;10.60;99.90;;;;;;5038526;28;20046;-73
2023/10/31 05:35:37;;;;;;;14.02;7.57;;;10.60;99.90;;;;;;5033619;28;20093;-73
2023/10/31 05:38:04;;;;;;;9.63;7.63;;;10.70;99.90;;;;;;5038604;28;20041;-72
2023/10/31 05:40:35;;;;;;;15.50;8.70;;;10.60;99.90;;;;;;5038440;28;20461;-72
2023/10/31 05:43:02;;;;;;;11.95;7.93;;;10.60;99.90;;;;;;5042233;28;20041;-71
2023/10/31 05:45:30;;;;;;;14.13;8.55;;;10.60;99.90;;;;;;5036163;28;20164;-73
2023/10/31 05:47:58;;;;;;;14.60;8.48;;;10.70;99.90;;;;;;5038103;28;20392;-71
2023/10/31 05:50:25;;;;;;;12.38;8.45;;;10.80;99.90;;;;;;5038399;28;20048;-74
2023/10/31 05:52:52;;;;;;;13.13;8.15;;;10.80;99.90;;;;;;5039256;28;20407;-73
2023/10/31 05:55:19;;;;;;;12.57;8.15;;;10.80;99.90;;;;;;5039551;28;20140;-72
2023/10/31 05:57:46;;;;;;;34.40;21.42;;;10.90;99.90;;;;;;5044876;28;20404;-71
2023/10/31 06:00:14;;;;;;;40.85;24.50;;;11.00;99.90;;;;;;5036605;28;20039;-72
2023/10/31 06:02:41;;;;;;;21.67;14.32;;;11.10;99.90;;;;;;5037160;28;20047;-73
2023/10/31 06:05:09;;;;;;;20.13;13.50;;;11.00;99.90;;;;;;5043399;28;20034;-73
2023/10/31 06:07:36;;;;;;;11.90;8.35;;;11.00;99.90;;;;;;5041893;28;20041;-73
2023/10/31 06:10:04;;;;;;;12.18;8.20;;;11.10;99.90;;;;;;5032163;28;20079;-71
2023/10/31 06:12:31;;;;;;;21.60;12.93;;;11.20;99.90;;;;;;5036623;28;20531;-75
2023/10/31 06:14:58;;;;;;;35.58;21.08;;;11.50;99.90;;;;;;5042487;28;20045;-72
2023/10/31 06:17:26;;;;;;;30.85;17.90;;;11.70;99.90;;;;;;5045168;28;20044;-70
2023/10/31 06:19:53;;;;;;;36.42;20.25;;;11.80;99.90;;;;;;5037814;28;20485;-71
2023/10/31 06:22:20;;;;;;;32.20;18.63;;;11.70;99.90;;;;;;5026758;28;20122;-73
2023/10/31 06:24:47;;;;;;;20.73;12.13;;;11.80;99.90;;;;;;5040084;28;20112;-71
2023/10/31 06:27:15;;;;;;;24.38;12.52;;;11.60;99.90;;;;;;5032860;28;20041;-74
2023/10/31 06:29:42;;;;;;;16.40;10.70;;;11.70;99.90;;;;;;5044087;28;20029;-73
2023/10/31 06:32:29;;;;;;;17.10;11.07;;;11.20;99.90;;;;;;5032134;28;20141;-73
2023/10/31 06:34:56;;;;;;;23.30;11.75;;;11.40;99.90;;;;;;5037237;28;20452;-71
2023/10/31 06:37:24;;;;;;;15.27;10.70;;;11.80;99.90;;;;;;5037186;28;20103;-72
2023/10/31 06:39:51;;;;;;;18.05;11.00;;;12.10;99.90;;;;;;5035326;28;20038;-74
2023/10/31 06:42:18;;;;;;;19.88;10.90;;;12.20;99.90;;;;;;5036829;28;20123;-72
2023/10/31 06:44:45;;;;;;;53.28;31.10;;;11.80;99.90;;;;;;5056352;28;20572;-74
2023/10/31 06:47:12;;;;;;;30.60;16.98;;;11.90;99.90;;;;;;5036947;28;20044;-72
2023/10/31 06:49:39;;;;;;;29.77;18.30;;;12.00;99.90;;;;;;5054078;28;20037;-73
2023/10/31 06:52:07;;;;;;;21.27;13.77;;;12.10;99.90;;;;;;5037476;28;20047;-74
2023/10/31 06:54:34;;;;;;;20.73;12.70;;;12.20;99.90;;;;;;5040268;28;20064;-74
2023/10/31 06:57:02;;;;;;;24.20;13.13;;;12.30;99.90;;;;;;5041357;28;20103;-73
2023/10/31 06:59:29;;;;;;;18.70;10.98;;;12.40;99.90;;;;;;5036632;28;20117;-74
2023/10/31 07:01:56;;;;;;;17.27;10.80;;;12.50;99.90;;;;;;5039365;28;20041;-76
2023/10/31 07:04:24;;;;;;;19.33;11.15;;;12.40;99.90;;;;;;5040810;28;20096;-77
2023/10/31 07:06:57;;;;;;;16.85;10.55;;;12.70;99.90;;;;;;5059513;28;20362;-76
2023/10/31 07:09:26;;;;;;;15.65;11.05;;;12.60;99.90;;;;;;5050202;28;20115;-77
2023/10/31 07:11:53;;;;;;;17.80;10.18;;;12.60;99.90;;;;;;5024669;28;20408;-77
2023/10/31 07:14:20;;;;;;;17.70;12.88;;;12.90;99.90;;;;;;5054402;28;20041;-75
2023/10/31 07:16:48;;;;;;;19.95;11.57;;;13.20;99.90;;;;;;5031996;28;20083;-75
2023/10/31 07:19:16;;;;;;;20.92;11.85;;;13.40;99.90;;;;;;5037971;28;20040;-74
2023/10/31 07:21:43;;;;;;;20.02;11.73;;;13.50;99.90;;;;;;5035407;28;20164;-75
2023/10/31 07:24:10;;;;;;;25.15;12.55;;;13.60;99.90;;;;;;5039579;28;20037;-73
2023/10/31 07:26:38;;;;;;;24.13;11.80;;;13.60;99.90;;;;;;5039635;28;20110;-75
2023/10/31 07:29:05;;;;;;;20.88;12.25;;;13.50;99.90;;;;;;5036070;28;20389;-75
2023/10/31 07:31:33;;;;;;;20.48;11.52;;;13.60;99.90;;;;;;5033798;28;20037;-75
2023/10/31 07:34:00;;;;;;;21.92;11.65;;;13.50;99.90;;;;;;5035825;28;20041;-73
2023/10/31 07:36:27;;;;;;;19.88;12.73;;;13.40;99.90;;;;;;5038713;28;20037;-73
2023/10/31 07:38:54;;;;;;;18.00;11.93;;;13.50;99.90;;;;;;5040169;28;20045;-74
2023/10/31 07:41:21;;;;;;;16.45;10.73;;;13.60;99.90;;;;;;5032922;28;20041;-73
2023/10/31 07:43:49;;;;;;;19.00;10.65;;;13.50;99.90;;;;;;5038740;28;20145;-74
2023/10/31 07:46:16;;;;;;;21.58;12.63;;;13.60;99.90;;;;;;5038745;28;20129;-73
2023/10/31 07:48:43;;;;;;;17.15;11.70;;;13.50;99.90;;;;;;5031763;28;20095;-74
2023/10/31 07:51:11;;;;;;;24.00;13.30;;;13.60;99.90;;;;;;5039715;28;20120;-74
2023/10/31 07:53:38;;;;;;;31.63;15.18;;;13.60;99.90;;;;;;5039923;28;20038;-73
2023/10/31 07:56:14;;;;;;;32.08;13.80;;;13.60;99.90;;;;;;5038630;28;20041;-75
2023/10/31 07:58:41;;;;;;;31.00;15.15;;;13.80;99.90;;;;;;5035834;28;20109;-74
2023/10/31 08:01:10;;;;;;;23.88;13.70;;;13.80;99.90;;;;;;5038105;28;20461;-74
2023/10/31 08:03:37;;;;;;;31.90;14.43;;;13.80;99.90;;;;;;5041576;28;20038;-74
2023/10/31 08:06:07;;;;;;;23.45;13.50;;;13.80;99.90;;;;;;5038348;28;20049;-73
2023/10/31 08:08:34;;;;;;;34.10;14.18;;;13.70;99.90;;;;;;5034724;28;20460;-74
2023/10/31 08:11:02;;;;;;;29.95;14.88;;;13.20;99.90;;;;;;5035507;28;20048;-72
2023/10/31 08:13:30;;;;;;;26.67;13.27;;;13.60;99.90;;;;;;5017624;28;20126;-74
2023/10/31 08:15:57;;;;;;;23.90;13.60;;;13.20;99.90;;;;;;5032946;28;20128;-72
2023/10/31 08:18:24;;;;;;;23.63;14.70;;;13.90;99.90;;;;;;5035070;28;20381;-74
2023/10/31 08:20:51;;;;;;;24.58;12.82;;;14.50;99.90;;;;;;5036157;28;20045;-75
2023/10/31 08:23:19;;;;;;;29.15;14.05;;;14.80;99.90;;;;;;5027675;28;20213;-73
2023/10/31 08:25:46;;;;;;;24.60;13.50;;;15.10;99.90;;;;;;5031204;28;20037;-73
2023/10/31 08:28:13;;;;;;;23.83;13.82;;;15.10;99.90;;;;;;5028925;28;20041;-74
2023/10/31 08:30:40;;;;;;;25.98;13.02;;;15.20;99.90;;;;;;5031777;28;20116;-73
2023/10/31 08:33:08;;;;;;;22.77;12.40;;;15.30;99.90;;;;;;5039643;28;20047;-75
2023/10/31 08:35:38;;;;;;;23.52;13.70;;;15.30;99.90;;;;;;5035309;28;20437;-74
2023/10/31 08:38:05;;;;;;;28.10;14.48;;;15.40;99.90;;;;;;5031291;28;20373;-73
2023/10/31 08:40:32;;;;;;;23.60;12.45;;;14.20;99.90;;;;;;5034518;28;20041;-71
2023/10/31 08:43:00;;;;;;;24.65;12.80;;;14.60;99.90;;;;;;5032562;28;20037;-74
2023/10/31 08:45:27;;;;;;;23.40;12.77;;;14.90;99.90;;;;;;5027060;28;20048;-73
2023/10/31 08:47:55;;;;;;;22.13;11.02;;;14.40;99.90;;;;;;5029390;28;20043;-73
2023/10/31 08:50:22;;;;;;;24.38;13.27;;;13.80;99.90;;;;;;5033685;28;20030;-72
2023/10/31 08:52:49;;;;;;;23.67;12.70;;;13.70;99.90;;;;;;5036002;28;20037;-76
2023/10/31 08:55:17;;;;;;;30.83;16.35;;;13.80;99.90;;;;;;5032242;28;20033;-76
2023/10/31 08:57:44;;;;;;;26.77;15.45;;;14.30;99.90;;;;;;5031607;28;20102;-73
2023/10/31 09:00:13;;;;;;;29.45;15.93;;;14.60;99.90;;;;;;5035063;28;20041;-75
2023/10/31 09:02:40;;;;;;;30.42;13.90;;;15.10;99.90;;;;;;5035989;28;20079;-75
2023/10/31 09:05:08;;;;;;;27.38;13.95;;;14.70;99.90;;;;;;5053145;28;20385;-74
2023/10/31 09:07:35;;;;;;;18.35;13.70;;;14.80;99.90;;;;;;5041212;28;20037;-74
2023/10/31 09:10:05;;;;;;;21.35;13.15;;;14.90;99.90;;;;;;5029727;28;20116;-73
2023/10/31 09:12:32;;;;;;;28.90;13.90;;;14.90;99.90;;;;;;5034336;28;20103;-73
2023/10/31 09:15:00;;;;;;;30.70;13.20;;;15.20;99.90;;;;;;5028203;28;20221;-73
2023/10/31 09:17:28;;;;;;;24.80;13.65;;;15.30;99.90;;;;;;5026050;28;20125;-76
2023/10/31 09:19:55;;;;;;;30.65;13.93;;;14.70;99.90;;;;;;5039316;28;20043;-73
2023/10/31 09:22:23;;;;;;;22.73;12.52;;;14.90;99.90;;;;;;5038812;28;20549;-73
2023/10/31 09:24:51;;;;;;;22.08;12.98;;;15.00;99.90;;;;;;5032487;28;20044;-75
2023/10/31 09:27:19;;;;;;;29.00;12.75;;;14.70;99.90;;;;;;5037049;28;20069;-76
2023/10/31 09:29:46;;;;;;;19.88;12.23;;;15.10;99.90;;;;;;5032364;28;20533;-76
2023/10/31 09:32:15;;;;;;;22.15;12.73;;;15.30;99.90;;;;;;5035672;28;20057;-75
2023/10/31 09:34:43;;;;;;;24.75;14.00;;;15.60;99.90;;;;;;5034043;28;20128;-76
2023/10/31 09:37:10;;;;;;;25.88;12.85;;;15.90;99.90;;;;;;5034421;28;20066;-74
2023/10/31 09:39:40;;;;;;;20.52;11.50;;;15.90;99.90;;;;;;5033774;28;20045;-76
2023/10/31 09:42:10;;;;;;;21.30;11.07;;;16.00;99.90;;;;;;5029734;28;20554;-74
2023/10/31 09:44:37;;;;;;;19.00;11.18;;;15.90;99.90;;;;;;5037130;28;20594;-73
2023/10/31 09:47:06;;;;;;;23.70;9.95;;;16.20;99.90;;;;;;5040459;28;20048;-73
2023/10/31 09:49:36;;;;;;;25.70;11.68;;;17.00;99.90;;;;;;5032243;28;20085;-73
2023/10/31 09:52:04;;;;;;;21.90;10.93;;;17.60;99.90;;;;;;5032809;28;20061;-73
2023/10/31 09:54:34;;;;;;;21.67;10.57;;;18.20;99.90;;;;;;5030719;28;20042;-71
2023/10/31 09:57:02;;;;;;;21.35;10.82;;;18.40;99.90;;;;;;5018835;28;20061;-72
2023/10/31 09:59:29;;;;;;;28.45;8.65;;;18.50;99.90;;;;;;5027599;28;20076;-72
2023/10/31 10:01:57;;;;;;;20.30;9.95;;;18.70;99.90;;;;;;5036503;28;20048;-71
2023/10/31 10:04:24;;;;;;;19.77;9.75;;;18.90;99.90;;;;;;5029401;28;20052;-71
2023/10/31 10:07:01;;;;;;;17.95;9.77;;;19.00;99.90;;;;;;5035037;28;20039;-73
2023/10/31 10:09:30;;;;;;;19.40;10.25;;;18.70;99.90;;;;;;5031851;28;20045;-73
2023/10/31 10:12:01;;;;;;;17.67;9.75;;;18.00;99.90;;;;;;5035957;28;20116;-73
2023/10/31 10:14:31;;;;;;;15.65;9.43;;;18.20;99.90;;;;;;5067845;28;20076;-73
2023/10/31 10:16:59;;;;;;;22.65;10.27;;;18.70;99.90;;;;;;5036700;28;20047;-74
2023/10/31 10:19:28;;;;;;;16.52;8.40;;;19.00;99.90;;;;;;5045440;28;20467;-73
2023/10/31 10:21:58;;;;;;;18.80;8.43;;;18.40;99.90;;;;;;5035683;28;20108;-73
2023/10/31 10:24:26;;;;;;;16.08;8.88;;;18.60;99.90;;;;;;5033385;28;20103;-71
2023/10/31 10:26:53;;;;;;;24.63;10.13;;;18.50;99.90;;;;;;5034730;28;20073;-75
2023/10/31 10:29:20;;;;;;;11.77;7.68;;;18.40;99.90;;;;;;5033815;28;20051;-73
2023/10/31 10:31:48;;;;;;;16.40;8.40;;;18.20;99.90;;;;;;5037374;28;20034;-72
2023/10/31 10:34:16;;;;;;;16.13;8.13;;;17.60;99.90;;;;;;5019951;28;20045;-72
2023/10/31 10:36:52;;;;;;;16.63;7.30;;;17.30;99.90;;;;;;5030791;28;20385;-72
2023/10/31 10:39:21;;;;;;;15.93;7.90;;;17.30;99.90;;;;;;5035548;28;20099;-74
2023/10/31 10:41:55;;;;;;;19.30;8.33;;;17.60;99.90;;;;;;5038350;28;20388;-74
2023/10/31 10:44:34;;;;;;;15.85;8.48;;;18.30;99.90;;;;;;5031452;28;20051;-75
2023/10/31 10:47:06;;;;;;;16.95;7.70;;;18.50;99.90;;;;;;5024405;28;20125;-73
2023/10/31 10:49:38;;;;;;;15.57;8.07;;;18.40;99.90;;;;;;5039742;28;20052;-74
2023/10/31 10:52:27;;;;;;;19.75;9.18;;;18.40;99.90;;;;;;5040959;28;20052;-73
2023/10/31 10:55:07;;;;;;;18.10;8.82;;;18.30;99.90;;;;;;5041046;28;20045;-73
2023/10/31 10:58:00;;;;;;;18.88;8.95;;;18.70;99.90;;;;;;5020765;28;20613;-73
2023/10/31 11:00:28;;;;;;;22.42;8.75;;;19.40;99.90;;;;;;5034729;28;20076;-73
2023/10/31 11:02:56;;;;;;;17.92;8.90;;;20.00;99.50;;;;;;5039629;28;20037;-74
2023/10/31 11:05:24;;;;;;;21.27;9.23;;;19.50;99.60;;;;;;5033668;28;20040;-76
2023/10/31 11:07:55;;;;;;;15.80;8.15;;;19.50;99.70;;;;;;5032849;28;20037;-75
2023/10/31 11:10:24;;;;;;;19.73;8.88;;;20.00;99.60;;;;;;5030031;28;20691;-75
2023/10/31 11:12:52;;;;;;;19.63;8.98;;;20.50;98.80;;;;;;5034015;28;20037;-75
2023/10/31 11:15:20;;;;;;;15.07;8.38;;;20.80;98.00;;;;;;5035335;28;20070;-75
2023/10/31 11:17:48;;;;;;;25.17;9.65;;;21.40;97.40;;;;;;5042245;28;20101;-78
2023/10/31 11:20:16;;;;;;;19.90;9.40;;;21.50;96.50;;;;;;5036800;28;20038;-75
2023/10/31 11:22:45;;;;;;;18.90;8.80;;;21.90;95.70;;;;;;5021861;28;20060;-75
2023/10/31 11:25:18;;;;;;;18.05;8.48;;;22.40;95.00;;;;;;5038419;28;20038;-75
2023/10/31 11:28:10;;;;;;;17.10;8.05;;;22.70;93.90;;;;;;5039417;28;20389;-76
2023/10/31 11:30:37;;;;;;;;;;;23.00;93.70;;;;;;5039156;28;20041;-76
2023/10/31 11:33:05;;;;;;;24.95;11.75;;;23.80;92.50;;;;;;5037786;28;19927;-77
2023/10/31 11:35:38;;;;;;;23.63;10.60;;;26.30;89.10;;;;;;5031046;28;20392;-77
2023/10/31 11:38:08;;;;;;;18.63;7.82;;;27.50;82.60;;;;;;5032309;28;20046;-76
2023/10/31 11:40:37;;;;;;;18.43;7.13;;;28.90;76.40;;;;;;5038301;28;20053;-73
2023/10/31 11:43:06;;;;;;;16.60;6.28;;;29.30;69.90;;;;;;5039181;28;20145;-77
2023/10/31 11:45:47;;;;;;;18.20;6.20;;;28.80;70.20;;;;;;5033874;28;20070;-76
2023/10/31 11:48:15;;;;;;;15.68;5.88;;;28.90;68.00;;;;;;5038566;28;20102;-74
2023/10/31 11:50:43;;;;;;;14.63;5.65;;;29.50;67.40;;;;;;5037735;28;20299;-77
2023/10/31 11:53:13;;;;;;;15.80;6.25;;;28.70;66.10;;;;;;5036615;28;20041;-73
2023/10/31 11:55:46;;;;;;;14.95;7.13;;;25.10;71.80;;;;;;5037521;28;20076;-74
2023/10/31 11:58:30;;;;;;;13.27;6.13;;;22.70;77.70;;;;;;5040703;28;20037;-75
2023/10/31 12:01:03;;;;;;;12.77;5.88;;;22.00;81.90;;;;;;5018971;28;20141;-75
2023/10/31 12:03:41;;;;;;;18.40;6.00;;;22.40;82.10;;;;;;5036344;28;20120;-77
2023/10/31 12:06:10;;;;;;;10.60;5.00;;;23.00;81.80;;;;;;5026398;28;20053;-76
2023/10/31 12:08:39;;;;;;;11.15;5.25;;;23.30;80.20;;;;;;5040025;28;20068;-77
2023/10/31 12:11:20;;;;;;;14.85;5.63;;;23.00;80.80;;;;;;5039890;28;20370;-77
2023/10/31 12:13:56;;;;;;;13.63;5.55;;;22.40;81.80;;;;;;5036384;28;20181;-75
2023/10/31 12:16:26;;;;;;;14.52;5.85;;;21.90;83.50;;;;;;5040396;28;20095;-78
2023/10/31 12:18:59;;;;;;;11.40;5.57;;;21.70;84.40;;;;;;5029682;28;20030;-76
2023/10/31 12:21:42;;;;;;;14.60;6.07;;;21.40;85.70;;;;;;5036119;28;20055;-76
2023/10/31 12:24:13;;;;;;;15.23;6.20;;;21.30;86.70;;;;;;5038237;28;20065;-76
2023/10/31 12:26:41;;;;;;;12.52;5.68;;;21.20;87.00;;;;;;5041270;28;20255;-77
2023/10/31 12:29:21;;;;;;;13.02;6.35;;;21.10;87.90;;;;;;5037734;28;20079;-76
2023/10/31 12:31:51;;;;;;;14.88;6.07;;;20.90;88.60;;;;;;5037331;28;20083;-77
2023/10/31 12:34:22;;;;;;;15.32;6.28;;;20.80;88.80;;;;;;5040805;28;20124;-77
2023/10/31 12:36:52;;;;;;;13.13;5.97;;;20.90;89.70;;;;;;5035147;28;20041;-76